createdAt,value
2019-01-18T00:00:53.360Z,0
2019-01-18T00:02:03.057Z,0
2019-01-18T00:03:12.738Z,0
2019-01-18T00:04:22.686Z,0
2019-01-18T00:05:32.636Z,0
2019-01-18T00:06:42.577Z,0
2019-01-18T00:07:52.265Z,0
2019-01-18T00:09:01.944Z,0
2019-01-18T00:10:11.628Z,0
2019-01-18T00:11:21.312Z,0
2019-01-18T00:12:31.260Z,0
2019-01-18T00:13:40.180Z,0
2019-01-18T00:14:49.860Z,0
2019-01-18T00:15:59.278Z,0
2019-01-18T00:17:09.228Z,0
2019-01-18T00:18:18.675Z,0
2019-01-18T00:19:28.620Z,0
2019-01-18T00:20:38.310Z,0
2019-01-18T00:21:48.264Z,0
2019-01-18T00:22:57.732Z,0
2019-01-18T00:24:07.667Z,0
2019-01-18T00:25:17.604Z,0
2019-01-18T00:26:27.543Z,0
2019-01-18T00:27:36.964Z,0
2019-01-18T00:28:46.892Z,0
2019-01-18T00:29:56.832Z,0
2019-01-18T00:31:06.275Z,0
2019-01-18T00:32:16.198Z,0
2019-01-18T00:33:26.138Z,0
2019-01-18T00:34:35.812Z,0
2019-01-18T00:35:45.498Z,0
2019-01-18T00:36:55.443Z,0
2019-01-18T00:38:05.374Z,0
2019-01-18T00:39:15.048Z,0
2019-01-18T00:40:24.740Z,0
2019-01-18T00:41:34.419Z,0
2019-01-18T00:42:44.408Z,0
2019-01-18T00:43:54.088Z,0
2019-01-18T00:45:04.020Z,0
2019-01-18T00:46:13.697Z,0
2019-01-18T00:47:23.120Z,0
2019-01-18T00:48:32.802Z,0
2019-01-18T00:49:42.486Z,0
2019-01-18T00:50:52.430Z,0
2019-01-18T00:52:02.364Z,0
2019-01-18T00:53:12.041Z,0
2019-01-18T00:54:21.731Z,0
2019-01-18T00:55:31.402Z,0
2019-01-18T00:56:41.083Z,0
2019-01-18T00:57:50.783Z,0
2019-01-18T00:59:00.718Z,0
2019-01-18T01:00:10.660Z,0
2019-01-18T01:01:20.337Z,0
2019-01-18T01:02:30.270Z,0
2019-01-18T01:03:40.216Z,0
2019-01-18T01:04:50.138Z,0
2019-01-18T01:05:59.313Z,0
2019-01-18T01:07:08.999Z,0
2019-01-18T01:08:18.676Z,0
2019-01-18T01:09:28.366Z,0
2019-01-18T01:10:38.310Z,0
2019-01-18T01:11:47.999Z,0
2019-01-18T01:12:57.944Z,0
2019-01-18T01:14:07.857Z,0
2019-01-18T01:15:17.777Z,0
2019-01-18T01:16:27.455Z,0
2019-01-18T01:17:37.377Z,0
2019-01-18T01:18:47.307Z,0
2019-01-18T01:19:57.255Z,0
2019-01-18T01:21:06.698Z,0
2019-01-18T01:22:16.383Z,0
2019-01-18T01:23:26.314Z,0
2019-01-18T01:24:36.249Z,0
2019-01-18T01:25:45.688Z,0
2019-01-18T01:26:55.368Z,0
2019-01-18T01:28:05.045Z,0
2019-01-18T01:29:14.993Z,0
2019-01-18T01:30:24.936Z,0
2019-01-18T01:31:34.616Z,0
2019-01-18T01:32:44.543Z,0
2019-01-18T01:33:54.265Z,0
2019-01-18T01:35:03.951Z,0
2019-01-18T01:36:13.881Z,0
2019-01-18T01:37:23.055Z,0
2019-01-18T01:38:32.769Z,0
2019-01-18T01:39:42.694Z,0
2019-01-18T01:40:52.123Z,0
2019-01-18T01:42:02.047Z,0
2019-01-18T01:43:11.762Z,0
2019-01-18T01:44:21.685Z,0
2019-01-18T01:45:31.375Z,0
2019-01-18T01:46:41.046Z,0
2019-01-18T01:47:50.971Z,0
2019-01-18T01:49:00.892Z,0
2019-01-18T01:50:10.829Z,0
2019-01-18T01:51:20.547Z,0
2019-01-18T01:52:29.981Z,0
2019-01-18T01:53:39.917Z,0
2019-01-18T01:54:49.844Z,0
2019-01-18T01:55:59.758Z,0
2019-01-18T01:57:09.425Z,0
2019-01-18T01:58:19.133Z,0
2019-01-18T01:59:28.824Z,0
2019-01-18T02:00:38.759Z,0
2019-01-18T02:01:48.708Z,0
2019-01-18T02:02:58.746Z,0
2019-01-18T02:04:08.436Z,0
2019-01-18T02:05:18.381Z,0
2019-01-18T02:06:28.319Z,0
2019-01-18T02:07:38.009Z,0
2019-01-18T02:08:47.685Z,0
2019-01-18T02:09:57.612Z,0
2019-01-18T02:11:07.051Z,0
2019-01-18T02:12:16.983Z,0
2019-01-18T02:13:26.667Z,0
2019-01-18T02:14:36.348Z,0
2019-01-18T02:15:46.292Z,0
2019-01-18T02:16:56.225Z,0
2019-01-18T02:18:05.918Z,0
2019-01-18T02:19:15.613Z,0
2019-01-18T02:20:25.555Z,0
2019-01-18T02:21:35.516Z,0
2019-01-18T02:22:45.215Z,0
2019-01-18T02:23:54.907Z,0
2019-01-18T02:25:04.590Z,0
2019-01-18T02:26:14.515Z,0
2019-01-18T02:27:24.437Z,0
2019-01-18T02:28:34.129Z,0
2019-01-18T02:29:44.217Z,0
2019-01-18T02:30:53.657Z,0
2019-01-18T02:32:03.353Z,0
2019-01-18T02:33:13.038Z,0
2019-01-18T02:34:22.990Z,0
2019-01-18T02:35:32.946Z,0
2019-01-18T02:36:42.894Z,0
2019-01-18T02:37:52.332Z,0
2019-01-18T02:39:02.049Z,0
2019-01-18T02:40:12.000Z,0
2019-01-18T02:41:21.942Z,0
2019-01-18T02:42:31.893Z,0
2019-01-18T02:43:41.868Z,0
2019-01-18T02:44:51.578Z,0
2019-01-18T02:46:01.521Z,0
2019-01-18T02:47:11.477Z,0
2019-01-18T02:48:21.424Z,0
2019-01-18T02:49:31.367Z,0
2019-01-18T02:50:41.061Z,0
2019-01-18T02:51:50.752Z,0
2019-01-18T02:53:00.489Z,0
2019-01-18T02:54:10.441Z,0
2019-01-18T02:55:20.131Z,0
2019-01-18T02:56:30.097Z,0
2019-01-18T02:57:40.056Z,0
2019-01-18T02:58:49.785Z,0
2019-01-18T03:00:06.997Z,0
2019-01-18T03:01:16.710Z,0
2019-01-18T03:02:26.387Z,0
2019-01-18T03:03:36.067Z,0
2019-01-18T03:04:45.753Z,0
2019-01-18T03:05:55.449Z,0
2019-01-18T03:07:05.115Z,0
2019-01-18T03:08:14.800Z,0
2019-01-18T03:09:24.489Z,0
2019-01-18T03:10:34.166Z,0
2019-01-18T03:11:43.861Z,0
2019-01-18T03:12:53.577Z,0
2019-01-18T03:14:03.518Z,0
2019-01-18T03:15:13.452Z,0
2019-01-18T03:16:23.406Z,0
2019-01-18T03:17:33.343Z,0
2019-01-18T03:18:43.033Z,0
2019-01-18T03:19:52.461Z,0
2019-01-18T03:21:02.420Z,0
2019-01-18T03:22:12.367Z,0
2019-01-18T03:23:22.321Z,0
2019-01-18T03:24:32.287Z,0
2019-01-18T03:25:42.236Z,0
2019-01-18T03:26:52.178Z,0
2019-01-18T03:28:01.867Z,0
2019-01-18T03:29:11.800Z,0
2019-01-18T03:30:28.861Z,0
2019-01-18T03:31:38.603Z,0
2019-01-18T03:32:48.335Z,0
2019-01-18T03:33:58.422Z,0
2019-01-18T03:35:08.353Z,0
2019-01-18T03:36:18.297Z,0
2019-01-18T03:37:28.293Z,0
2019-01-18T03:38:37.997Z,0
2019-01-18T03:39:47.928Z,0
2019-01-18T03:40:57.887Z,0
2019-01-18T03:42:07.829Z,0
2019-01-18T03:43:17.775Z,0
2019-01-18T03:44:27.740Z,0
2019-01-18T03:45:37.665Z,0
2019-01-18T03:46:47.347Z,0
2019-01-18T03:47:57.274Z,0
2019-01-18T03:49:07.212Z,0
2019-01-18T03:50:17.153Z,0
2019-01-18T03:51:26.846Z,0
2019-01-18T03:52:36.285Z,0
2019-01-18T03:53:46.210Z,0
2019-01-18T03:54:56.151Z,0
2019-01-18T03:56:05.840Z,0
2019-01-18T03:57:15.779Z,0
2019-01-18T03:58:25.484Z,0
2019-01-18T03:59:35.431Z,0
2019-01-18T04:00:45.106Z,0
2019-01-18T04:01:55.054Z,0
2019-01-18T04:03:05.099Z,0
2019-01-18T04:04:14.875Z,0
2019-01-18T04:05:24.570Z,0
2019-01-18T04:06:34.268Z,0
2019-01-18T04:07:44.216Z,0
2019-01-18T04:08:54.146Z,0
2019-01-18T04:10:04.172Z,0
2019-01-18T04:11:13.861Z,0
2019-01-18T04:12:23.576Z,0
2019-01-18T04:13:33.272Z,0
2019-01-18T04:14:43.222Z,0
2019-01-18T04:15:53.155Z,0
2019-01-18T04:17:03.084Z,0
2019-01-18T04:18:12.799Z,0
2019-01-18T04:19:22.748Z,0
2019-01-18T04:20:32.711Z,0
2019-01-18T04:21:42.658Z,0
2019-01-18T04:22:52.610Z,0
2019-01-18T04:24:02.542Z,0
2019-01-18T04:25:12.237Z,0
2019-01-18T04:26:22.160Z,0
2019-01-18T04:27:31.598Z,0
2019-01-18T04:28:41.544Z,0
2019-01-18T04:29:51.485Z,0
2019-01-18T04:31:00.936Z,0
2019-01-18T04:32:10.373Z,0
2019-01-18T04:33:20.346Z,0
2019-01-18T04:34:30.030Z,0
2019-01-18T04:35:39.711Z,0
2019-01-18T04:36:49.384Z,0
2019-01-18T04:37:59.322Z,0
2019-01-18T04:39:09.258Z,0
2019-01-18T04:40:18.936Z,0
2019-01-18T04:41:28.615Z,0
2019-01-18T04:42:38.550Z,0
2019-01-18T04:43:48.480Z,0
2019-01-18T04:44:58.176Z,0
2019-01-18T04:46:08.135Z,0
2019-01-18T04:47:17.837Z,0
2019-01-18T04:48:27.811Z,0
2019-01-18T04:49:37.788Z,0
2019-01-18T04:50:47.739Z,0
2019-01-18T04:51:57.428Z,0
2019-01-18T04:53:07.359Z,0
2019-01-18T04:54:17.308Z,0
2019-01-18T04:55:26.741Z,0
2019-01-18T04:56:36.692Z,0
2019-01-18T04:57:46.662Z,0
2019-01-18T04:58:56.363Z,0
2019-01-18T05:00:06.120Z,0
2019-01-18T05:01:16.054Z,0
2019-01-18T05:02:26.016Z,0
2019-01-18T05:03:35.941Z,0
2019-01-18T05:04:45.875Z,0
2019-01-18T05:05:55.558Z,0
2019-01-18T05:07:05.244Z,0
2019-01-18T05:08:14.919Z,0
2019-01-18T05:09:24.853Z,0
2019-01-18T05:10:34.807Z,0
2019-01-18T05:11:44.241Z,0
2019-01-18T05:12:53.974Z,0
2019-01-18T05:14:03.952Z,0
2019-01-18T05:15:13.903Z,0
2019-01-18T05:16:23.834Z,0
2019-01-18T05:17:33.764Z,0
2019-01-18T05:18:43.467Z,0
2019-01-18T05:19:53.157Z,0
2019-01-18T05:21:02.578Z,0
2019-01-18T05:22:12.326Z,0
2019-01-18T05:23:22.036Z,0
2019-01-18T05:24:31.966Z,0
2019-01-18T05:25:41.160Z,0
2019-01-18T05:26:51.097Z,0
2019-01-18T05:28:01.056Z,0
2019-01-18T05:29:11.004Z,0
2019-01-18T05:30:20.968Z,0
2019-01-18T05:31:31.008Z,0
2019-01-18T05:32:40.459Z,0
2019-01-18T05:33:50.396Z,0
2019-01-18T05:35:00.224Z,0
2019-01-18T05:36:09.923Z,0
2019-01-18T05:37:19.886Z,0
2019-01-18T05:38:29.348Z,0
2019-01-18T05:39:39.033Z,0
2019-01-18T05:40:48.751Z,0
2019-01-18T05:41:58.690Z,0
2019-01-18T05:43:08.365Z,0
2019-01-18T05:44:18.107Z,0
2019-01-18T05:45:28.063Z,0
2019-01-18T05:46:38.006Z,0
2019-01-18T05:47:47.959Z,0
2019-01-18T05:48:57.674Z,0
2019-01-18T05:50:07.398Z,0
2019-01-18T05:51:17.089Z,0
2019-01-18T05:52:26.538Z,0
2019-01-18T05:53:35.511Z,0
2019-01-18T05:54:45.453Z,0
2019-01-18T05:55:54.896Z,0
2019-01-18T05:57:04.861Z,0
2019-01-18T05:58:14.796Z,0
2019-01-18T05:59:24.476Z,0
2019-01-18T06:00:34.296Z,0
2019-01-18T06:01:44.123Z,0
2019-01-18T06:02:54.050Z,0
2019-01-18T06:04:03.984Z,0
2019-01-18T06:05:13.968Z,0
2019-01-18T06:06:23.912Z,0
2019-01-18T06:07:33.854Z,0
2019-01-18T06:08:43.842Z,0
2019-01-18T06:09:53.775Z,0
2019-01-18T06:11:03.468Z,0
2019-01-18T06:12:13.398Z,0
2019-01-18T06:13:23.342Z,0
2019-01-18T06:14:33.297Z,0
2019-01-18T06:15:43.120Z,0
2019-01-18T06:16:53.065Z,0
2019-01-18T06:18:03.017Z,0
2019-01-18T06:19:12.951Z,0
2019-01-18T06:20:22.916Z,0
2019-01-18T06:21:32.608Z,0
2019-01-18T06:22:42.312Z,0
2019-01-18T06:23:52.241Z,0
2019-01-18T06:25:02.209Z,0
2019-01-18T06:26:12.166Z,0
2019-01-18T06:27:23.081Z,0
2019-01-18T06:28:33.170Z,0
2019-01-18T06:29:42.614Z,0
2019-01-18T06:30:52.555Z,0
2019-01-18T06:32:01.970Z,0
2019-01-18T06:33:11.419Z,0
2019-01-18T06:34:21.378Z,0
2019-01-18T06:35:31.324Z,0
2019-01-18T06:36:41.262Z,0
2019-01-18T06:37:51.418Z,0
2019-01-18T06:39:01.588Z,0
2019-01-18T06:40:11.583Z,0
2019-01-18T06:41:21.288Z,0
2019-01-18T06:42:30.970Z,0
2019-01-18T06:43:40.899Z,0
2019-01-18T06:44:50.588Z,0
2019-01-18T06:46:00.512Z,0
2019-01-18T06:47:10.206Z,0
2019-01-18T06:48:20.154Z,0
2019-01-18T06:49:30.195Z,0
2019-01-18T06:50:40.113Z,0
2019-01-18T06:51:50.062Z,0
2019-01-18T06:53:00.034Z,0
2019-01-18T06:54:09.986Z,0
2019-01-18T06:55:19.928Z,0
2019-01-18T06:56:29.604Z,0
2019-01-18T06:57:39.784Z,5
2019-01-18T06:58:49.731Z,5
2019-01-18T06:59:59.896Z,5
2019-01-18T07:01:15.591Z,5
2019-01-18T07:02:25.528Z,5
2019-01-18T07:03:35.740Z,5
2019-01-18T07:04:50.965Z,10
2019-01-18T07:06:00.658Z,10
2019-01-18T07:07:10.599Z,10
2019-01-18T07:08:20.539Z,10
2019-01-18T07:09:30.227Z,15
2019-01-18T07:10:40.171Z,15
2019-01-18T07:11:50.109Z,15
2019-01-18T07:13:00.042Z,20
2019-01-18T07:14:09.992Z,20
2019-01-18T07:15:19.418Z,25
2019-01-18T07:16:29.359Z,25
2019-01-18T07:17:39.309Z,25
2019-01-18T07:18:49.247Z,30
2019-01-18T07:19:58.980Z,30
2019-01-18T07:21:08.429Z,35
2019-01-18T07:22:18.131Z,35
2019-01-18T07:23:27.838Z,40
2019-01-18T07:24:38.017Z,45
2019-01-18T07:25:47.968Z,45
2019-01-18T07:26:57.959Z,50
2019-01-18T07:28:07.918Z,50
2019-01-18T07:29:17.907Z,55
2019-01-18T07:30:27.863Z,55
2019-01-18T07:31:37.806Z,60
2019-01-18T07:32:47.797Z,60
2019-01-18T07:33:57.506Z,65
2019-01-18T07:35:08.497Z,70
2019-01-18T07:36:18.511Z,70
2019-01-18T07:37:28.213Z,75
2019-01-18T07:38:37.924Z,80
2019-01-18T07:39:47.876Z,80
2019-01-18T07:40:57.364Z,85
2019-01-18T07:42:07.100Z,85
2019-01-18T07:43:16.790Z,90
2019-01-18T07:44:26.764Z,90
2019-01-18T07:45:36.489Z,95
2019-01-18T07:46:45.687Z,95
2019-01-18T07:47:55.731Z,100
2019-01-18T07:49:05.692Z,100
2019-01-18T07:50:22.311Z,105
2019-01-18T07:51:32.304Z,110
2019-01-18T07:52:42.256Z,110
2019-01-18T07:53:51.957Z,115
2019-01-18T07:55:01.906Z,115
2019-01-18T07:56:11.644Z,120
2019-01-18T07:57:21.332Z,115
2019-01-18T07:58:31.313Z,120
2019-01-18T07:59:41.240Z,135
2019-01-18T08:00:50.931Z,145
2019-01-18T08:02:00.879Z,150
2019-01-18T08:03:10.819Z,150
2019-01-18T08:04:20.781Z,155
2019-01-18T08:05:30.721Z,155
2019-01-18T08:06:40.695Z,165
2019-01-18T08:07:50.779Z,165
2019-01-18T08:09:00.754Z,170
2019-01-18T08:10:10.731Z,175
2019-01-18T08:11:20.433Z,185
2019-01-18T08:12:30.395Z,190
2019-01-18T08:13:40.349Z,195
2019-01-18T08:14:50.331Z,205
2019-01-18T08:16:00.081Z,215
2019-01-18T08:17:09.789Z,215
2019-01-18T08:18:19.485Z,215
2019-01-18T08:19:29.429Z,225
2019-01-18T08:20:39.415Z,235
2019-01-18T08:21:49.351Z,235
2019-01-18T08:22:58.549Z,245
2019-01-18T08:24:08.517Z,250
2019-01-18T08:25:18.403Z,260
2019-01-18T08:26:28.363Z,270
2019-01-18T08:27:38.159Z,285
2019-01-18T08:28:48.609Z,290
2019-01-18T08:29:58.347Z,300
2019-01-18T08:31:07.777Z,315
2019-01-18T08:32:17.461Z,320
2019-01-18T08:33:27.150Z,330
2019-01-18T08:34:37.087Z,330
2019-01-18T08:35:46.517Z,345
2019-01-18T08:36:56.208Z,350
2019-01-18T08:38:06.154Z,360
2019-01-18T08:39:15.863Z,375
2019-01-18T08:40:25.571Z,385
2019-01-18T08:41:35.528Z,390
2019-01-18T08:42:45.492Z,395
2019-01-18T08:43:55.201Z,390
2019-01-18T08:45:05.163Z,385
2019-01-18T08:46:15.146Z,370
2019-01-18T08:47:25.093Z,365
2019-01-18T08:48:35.044Z,370
2019-01-18T08:49:44.764Z,365
2019-01-18T08:50:54.461Z,365
2019-01-18T08:52:04.407Z,375
2019-01-18T08:53:13.852Z,375
2019-01-18T08:54:23.042Z,375
2019-01-18T08:55:32.777Z,375
2019-01-18T08:56:42.495Z,370
2019-01-18T08:57:52.457Z,370
2019-01-18T08:59:02.410Z,370
2019-01-18T09:00:12.137Z,370
2019-01-18T09:01:22.095Z,375
2019-01-18T09:02:31.807Z,375
2019-01-18T09:03:41.507Z,375
2019-01-18T09:04:51.461Z,385
2019-01-18T09:06:01.204Z,380
2019-01-18T09:07:11.159Z,390
2019-01-18T09:08:21.142Z,400
2019-01-18T09:09:31.120Z,425
2019-01-18T09:10:41.083Z,480
2019-01-18T09:11:51.041Z,550
2019-01-18T09:13:01.021Z,630
2019-01-18T09:14:11.018Z,665
2019-01-18T09:15:20.995Z,670
2019-01-18T09:16:30.690Z,690
2019-01-18T09:17:40.647Z,725
2019-01-18T09:18:50.613Z,735
2019-01-18T09:20:00.595Z,770
2019-01-18T09:21:10.543Z,785
2019-01-18T09:22:20.021Z,790
2019-01-18T09:23:29.723Z,775
2019-01-18T09:24:39.702Z,810
2019-01-18T09:25:49.422Z,845
2019-01-18T09:26:59.139Z,855
2019-01-18T09:28:09.340Z,855
2019-01-18T09:29:19.959Z,905
2019-01-18T09:30:29.683Z,870
2019-01-18T09:31:44.995Z,870
2019-01-18T09:32:54.731Z,900
2019-01-18T09:34:04.675Z,950
2019-01-18T09:35:14.690Z,965
2019-01-18T09:36:24.649Z,935
2019-01-18T09:37:34.366Z,960
2019-01-18T09:38:44.366Z,995
2019-01-18T09:39:54.764Z,1005
2019-01-18T09:41:04.717Z,1010
2019-01-18T09:42:14.450Z,1045
2019-01-18T09:43:24.428Z,1010
2019-01-18T09:44:34.402Z,1055
2019-01-18T09:45:43.856Z,1075
2019-01-18T09:46:53.563Z,1000
2019-01-18T09:48:03.551Z,1010
2019-01-18T09:49:13.244Z,1105
2019-01-18T09:50:22.968Z,1075
2019-01-18T09:51:32.933Z,1065
2019-01-18T09:52:42.735Z,1115
2019-01-18T09:53:52.469Z,1130
2019-01-18T09:55:02.545Z,1135
2019-01-18T09:56:12.501Z,1230
2019-01-18T09:57:22.199Z,1160
2019-01-18T09:58:32.147Z,1120
2019-01-18T09:59:42.089Z,1145
2019-01-18T10:00:51.798Z,1190
2019-01-18T10:02:01.745Z,1205
2019-01-18T10:03:11.713Z,1080
2019-01-18T10:04:21.246Z,1025
2019-01-18T10:05:31.419Z,990
2019-01-18T10:06:40.922Z,990
2019-01-18T10:07:50.699Z,1030
2019-01-18T10:09:00.680Z,1115
2019-01-18T10:10:10.399Z,1105
2019-01-18T10:11:20.111Z,1130
2019-01-18T10:12:29.561Z,1230
2019-01-18T10:13:39.560Z,1320
2019-01-18T10:14:49.611Z,1325
2019-01-18T10:15:58.817Z,1300
2019-01-18T10:17:08.539Z,1340
2019-01-18T10:18:18.490Z,1330
2019-01-18T10:19:27.936Z,1275
2019-01-18T10:20:37.922Z,1270
2019-01-18T10:21:48.837Z,1315
2019-01-18T10:22:58.814Z,1400
2019-01-18T10:24:08.781Z,1400
2019-01-18T10:25:18.784Z,1415
2019-01-18T10:26:28.469Z,1425
2019-01-18T10:27:38.184Z,1345
2019-01-18T10:28:48.139Z,1375
2019-01-18T10:29:58.107Z,1425
2019-01-18T10:31:07.806Z,1360
2019-01-18T10:32:17.249Z,1365
2019-01-18T10:33:27.206Z,1405
2019-01-18T10:34:37.150Z,1410
2019-01-18T10:35:47.104Z,1420
2019-01-18T10:36:57.346Z,1400
2019-01-18T10:38:07.039Z,1490
2019-01-18T10:39:16.766Z,1465
2019-01-18T10:40:26.778Z,1430
2019-01-18T10:41:36.736Z,1430
2019-01-18T10:42:46.684Z,1350
2019-01-18T10:43:56.171Z,1175
2019-01-18T10:45:06.149Z,1380
2019-01-18T10:46:16.113Z,1470
2019-01-18T10:47:25.822Z,1500
2019-01-18T10:48:35.292Z,1585
2019-01-18T10:49:44.726Z,1135
2019-01-18T10:50:54.414Z,345
2019-01-18T10:52:04.371Z,1550
2019-01-18T10:53:14.074Z,1640
2019-01-18T10:54:23.786Z,1605
2019-01-18T10:55:33.744Z,1545
2019-01-18T10:56:43.439Z,1705
2019-01-18T10:57:52.877Z,1655
2019-01-18T10:59:02.342Z,1595
2019-01-18T11:00:12.294Z,1615
2019-01-18T11:01:22.251Z,1680
2019-01-18T11:02:31.950Z,1610
2019-01-18T11:03:41.381Z,1625
2019-01-18T11:04:51.334Z,1700
2019-01-18T11:06:01.311Z,1705
2019-01-18T11:07:11.265Z,1685
2019-01-18T11:08:27.838Z,1675
2019-01-18T11:09:37.582Z,1695
2019-01-18T11:10:47.545Z,1720
2019-01-18T11:11:57.508Z,1580
2019-01-18T11:13:06.976Z,1455
2019-01-18T11:14:16.922Z,1770
2019-01-18T11:15:26.860Z,1750
2019-01-18T11:16:36.557Z,1750
2019-01-18T11:17:46.261Z,1740
2019-01-18T11:18:55.981Z,1660
2019-01-18T11:20:05.426Z,1525
2019-01-18T11:21:15.404Z,1555
2019-01-18T11:22:25.366Z,1635
2019-01-18T11:23:35.335Z,1660
2019-01-18T11:24:45.031Z,1740
2019-01-18T11:25:54.722Z,1770
2019-01-18T11:27:04.670Z,1690
2019-01-18T11:28:14.385Z,1720
2019-01-18T11:29:24.078Z,1735
2019-01-18T11:30:33.341Z,1660
2019-01-18T11:31:43.293Z,1750
2019-01-18T11:32:52.749Z,1695
2019-01-18T11:34:02.461Z,1700
2019-01-18T11:35:12.416Z,1775
2019-01-18T11:36:22.379Z,1230
2019-01-18T11:37:32.082Z,1755
2019-01-18T11:38:42.054Z,1790
2019-01-18T11:39:52.026Z,1820
2019-01-18T11:41:01.988Z,1795
2019-01-18T11:42:15.214Z,1775
2019-01-18T11:43:25.153Z,1830
2019-01-18T11:44:35.150Z,1840
2019-01-18T11:45:45.111Z,1750
2019-01-18T11:46:54.835Z,1810
2019-01-18T11:48:04.813Z,1790
2019-01-18T11:49:14.544Z,1740
2019-01-18T11:50:24.266Z,1710
2019-01-18T11:51:34.002Z,1755
2019-01-18T11:52:43.738Z,1815
2019-01-18T11:53:53.728Z,1825
2019-01-18T11:55:03.479Z,1835
2019-01-18T11:56:13.445Z,1870
2019-01-18T11:57:23.159Z,1900
2019-01-18T11:58:33.139Z,1860
2019-01-18T11:59:43.084Z,1820
2019-01-18T12:00:53.061Z,1775
2019-01-18T12:02:03.015Z,1785
2019-01-18T12:03:12.708Z,1795
2019-01-18T12:04:22.430Z,1840
2019-01-18T12:05:32.370Z,1920
2019-01-18T12:06:42.341Z,1855
2019-01-18T12:07:52.306Z,1845
2019-01-18T12:09:02.265Z,1855
2019-01-18T12:10:12.222Z,1785
2019-01-18T12:11:22.207Z,1860
2019-01-18T12:12:32.630Z,1855
2019-01-18T12:13:42.362Z,1845
2019-01-18T12:14:51.840Z,1900
2019-01-18T12:16:01.563Z,1880
2019-01-18T12:17:11.035Z,1860
2019-01-18T12:18:21.040Z,1880
2019-01-18T12:19:30.736Z,1880
2019-01-18T12:20:40.255Z,1890
2019-01-18T12:21:50.209Z,1895
2019-01-18T12:22:59.926Z,1905
2019-01-18T12:24:09.634Z,1930
2019-01-18T12:25:19.335Z,1920
2019-01-18T12:26:29.297Z,1880
2019-01-18T12:27:39.284Z,1900
2019-01-18T12:28:49.268Z,1925
2019-01-18T12:29:59.086Z,1910
2019-01-18T12:31:08.798Z,1895
2019-01-18T12:32:18.501Z,1980
2019-01-18T12:33:28.310Z,1950
2019-01-18T12:34:38.801Z,1905
2019-01-18T12:35:48.303Z,1915
2019-01-18T12:37:05.659Z,1935
2019-01-18T12:38:15.631Z,1885
2019-01-18T12:39:25.617Z,1830
2019-01-18T12:40:35.604Z,1780
2019-01-18T12:41:45.537Z,1795
2019-01-18T12:42:54.999Z,1860
2019-01-18T12:44:04.939Z,1865
2019-01-18T12:45:14.383Z,1840
2019-01-18T12:46:24.113Z,1825
2019-01-18T12:47:33.622Z,1825
2019-01-18T12:48:43.619Z,1875
2019-01-18T12:49:53.579Z,1865
2019-01-18T12:51:03.472Z,1850
2019-01-18T12:52:13.271Z,1850
2019-01-18T12:53:22.989Z,1825
2019-01-18T12:54:32.951Z,1850
2019-01-18T12:55:42.918Z,1850
2019-01-18T12:56:52.878Z,1845
2019-01-18T12:58:02.583Z,1850
2019-01-18T12:59:12.540Z,1780
2019-01-18T13:00:22.263Z,1780
2019-01-18T13:01:32.232Z,1845
2019-01-18T13:02:45.027Z,1890
2019-01-18T13:03:55.030Z,1855
2019-01-18T13:05:04.984Z,1770
2019-01-18T13:06:14.926Z,1740
2019-01-18T13:07:24.132Z,1760
2019-01-18T13:08:34.103Z,1755
2019-01-18T13:09:44.041Z,1740
2019-01-18T13:10:53.741Z,1765
2019-01-18T13:12:03.444Z,1725
2019-01-18T13:13:13.412Z,1635
2019-01-18T13:14:23.353Z,1640
2019-01-18T13:15:33.062Z,1685
2019-01-18T13:16:43.083Z,1550
2019-01-18T13:17:52.818Z,1070
2019-01-18T13:19:02.786Z,1445
2019-01-18T13:20:12.265Z,1640
2019-01-18T13:21:22.483Z,1690
2019-01-18T13:22:36.012Z,1700
2019-01-18T13:23:45.965Z,1795
2019-01-18T13:24:55.962Z,1760
2019-01-18T13:26:05.683Z,1680
2019-01-18T13:27:15.638Z,1675
2019-01-18T13:28:25.091Z,1680
2019-01-18T13:29:35.044Z,1690
2019-01-18T13:30:44.717Z,1660
2019-01-18T13:31:54.683Z,1670
2019-01-18T13:33:04.641Z,1655
2019-01-18T13:34:14.598Z,1610
2019-01-18T13:35:24.292Z,1615
2019-01-18T13:36:34.250Z,1600
2019-01-18T13:37:44.052Z,1560
2019-01-18T13:38:53.989Z,1610
2019-01-18T13:40:08.704Z,1590
2019-01-18T13:41:18.394Z,1525
2019-01-18T13:42:28.118Z,1550
2019-01-18T13:43:38.093Z,1515
2019-01-18T13:44:52.931Z,1445
2019-01-18T13:46:02.638Z,1430
2019-01-18T13:47:18.192Z,1400
2019-01-18T13:48:27.844Z,1380
2019-01-18T13:49:37.554Z,1385
2019-01-18T13:50:47.502Z,1395
2019-01-18T13:51:56.642Z,1375
2019-01-18T13:53:06.358Z,1295
2019-01-18T13:54:16.302Z,1300
2019-01-18T13:55:26.279Z,1320
2019-01-18T13:56:36.230Z,1275
2019-01-18T13:57:45.927Z,1235
2019-01-18T13:58:55.628Z,1275
2019-01-18T14:00:05.339Z,1325
2019-01-18T14:01:15.310Z,1280
2019-01-18T14:02:25.012Z,1240
2019-01-18T14:03:35.646Z,1225
2019-01-18T14:04:45.432Z,1240
2019-01-18T14:05:55.151Z,1220
2019-01-18T14:07:04.864Z,1160
2019-01-18T14:08:14.583Z,1135
2019-01-18T14:09:24.281Z,1145
2019-01-18T14:10:34.226Z,1155
2019-01-18T14:11:43.939Z,1125
2019-01-18T14:12:53.647Z,1120
2019-01-18T14:14:03.584Z,1115
2019-01-18T14:15:13.294Z,1085
2019-01-18T14:16:22.995Z,1080
2019-01-18T14:17:32.699Z,1065
2019-01-18T14:18:42.401Z,1020
2019-01-18T14:19:52.373Z,1000
2019-01-18T14:21:02.330Z,990
2019-01-18T14:22:11.532Z,955
2019-01-18T14:23:21.478Z,930
2019-01-18T14:24:31.431Z,910
2019-01-18T14:25:41.377Z,895
2019-01-18T14:26:51.050Z,880
2019-01-18T14:28:00.749Z,860
2019-01-18T14:29:10.201Z,835
2019-01-18T14:30:19.914Z,810
2019-01-18T14:31:29.622Z,795
2019-01-18T14:32:39.565Z,770
2019-01-18T14:33:49.517Z,735
2019-01-18T14:34:59.467Z,725
2019-01-18T14:36:09.414Z,685
2019-01-18T14:37:19.359Z,420
2019-01-18T14:38:34.652Z,425
2019-01-18T14:39:44.349Z,640
2019-01-18T14:40:54.317Z,645
2019-01-18T14:42:03.513Z,590
2019-01-18T14:43:13.464Z,550
2019-01-18T14:44:23.417Z,515
2019-01-18T14:45:33.369Z,500
2019-01-18T14:46:43.308Z,510
2019-01-18T14:47:53.267Z,440
2019-01-18T14:49:03.214Z,310
2019-01-18T14:50:12.919Z,210
2019-01-18T14:51:22.618Z,140
2019-01-18T14:52:32.566Z,130
2019-01-18T14:53:42.517Z,125
2019-01-18T14:54:52.216Z,120
2019-01-18T14:56:01.688Z,115
2019-01-18T14:57:11.677Z,115
2019-01-18T14:58:24.594Z,110
2019-01-18T14:59:34.368Z,105
2019-01-18T15:00:44.084Z,105
2019-01-18T15:01:54.066Z,100
2019-01-18T15:03:09.445Z,90
2019-01-18T15:04:19.403Z,85
2019-01-18T15:05:29.343Z,80
2019-01-18T15:06:39.029Z,80
2019-01-18T15:07:49.014Z,75
2019-01-18T15:08:58.721Z,70
2019-01-18T15:10:12.311Z,65
2019-01-18T15:11:21.513Z,65
2019-01-18T15:12:31.470Z,60
2019-01-18T15:13:41.163Z,55
2019-01-18T15:14:50.858Z,55
2019-01-18T15:16:00.539Z,50
2019-01-18T15:17:10.223Z,50
2019-01-18T15:18:20.178Z,50
2019-01-18T15:19:29.882Z,45
2019-01-18T15:20:39.809Z,40
2019-01-18T15:21:49.507Z,35
2019-01-18T15:22:59.219Z,35
2019-01-18T15:24:09.171Z,30
2019-01-18T15:25:19.134Z,30
2019-01-18T15:26:28.834Z,25
2019-01-18T15:27:38.773Z,25
2019-01-18T15:28:48.717Z,20
2019-01-18T15:29:58.410Z,20
2019-01-18T15:31:08.346Z,15
2019-01-18T15:32:18.048Z,15
2019-01-18T15:33:28.042Z,15
2019-01-18T15:34:38.008Z,10
2019-01-18T15:35:47.955Z,10
2019-01-18T15:36:57.421Z,10
2019-01-18T15:38:07.124Z,5
2019-01-18T15:39:16.310Z,5
2019-01-18T15:40:26.253Z,5
2019-01-18T15:41:35.717Z,5
2019-01-18T15:42:45.426Z,5
2019-01-18T15:43:56.543Z,0
2019-01-18T15:45:06.224Z,0
2019-01-18T15:46:15.677Z,0
2019-01-18T15:47:25.698Z,0
2019-01-18T15:48:35.680Z,0
2019-01-18T15:49:45.619Z,0
2019-01-18T15:50:55.558Z,0
2019-01-18T15:52:05.486Z,0
2019-01-18T15:53:15.173Z,0
2019-01-18T15:54:24.873Z,0
2019-01-18T15:55:34.560Z,0
2019-01-18T15:56:44.511Z,0
2019-01-18T15:57:54.451Z,0
2019-01-18T15:59:03.900Z,0
2019-01-18T16:00:13.830Z,0
2019-01-18T16:01:23.535Z,0
2019-01-18T16:02:33.477Z,0
2019-01-18T16:03:43.166Z,0
2019-01-18T16:04:53.120Z,0
2019-01-18T16:06:03.074Z,0
2019-01-18T16:07:13.034Z,0
2019-01-18T16:08:23.012Z,0
2019-01-18T16:09:33.025Z,0
2019-01-18T16:10:42.978Z,0
2019-01-18T16:11:52.465Z,0
2019-01-18T16:13:02.437Z,0
2019-01-18T16:14:11.870Z,0
2019-01-18T16:15:21.572Z,0
2019-01-18T16:16:31.250Z,0
2019-01-18T16:17:41.009Z,0
2019-01-18T16:18:50.701Z,0
2019-01-18T16:20:00.656Z,0
2019-01-18T16:21:12.182Z,0
2019-01-18T16:22:21.869Z,0
2019-01-18T16:23:31.572Z,0
2019-01-18T16:24:41.505Z,0
2019-01-18T16:25:51.192Z,0
2019-01-18T16:27:00.878Z,0
2019-01-18T16:28:10.818Z,0
2019-01-18T16:29:20.774Z,0